createdAt,value
2023-03-13T00:00:54.987Z,8.82
2023-03-13T00:03:22.954Z,8.76
2023-03-13T00:05:50.511Z,9.14
2023-03-13T00:08:18.041Z,8.92
2023-03-13T00:10:45.507Z,8.75
2023-03-13T00:13:14.630Z,8.74
2023-03-13T00:15:42.085Z,8.93
2023-03-13T00:18:09.555Z,8.76
2023-03-13T00:20:37.011Z,8.98
2023-03-13T00:23:04.512Z,8.70
2023-03-13T00:25:32.002Z,8.92
2023-03-13T00:27:59.524Z,8.88
2023-03-13T00:30:28.430Z,8.85
2023-03-13T00:32:56.060Z,8.94
2023-03-13T00:35:23.576Z,9.19
2023-03-13T00:37:51.070Z,9.00
2023-03-13T00:40:20.209Z,9.00
2023-03-13T00:42:47.678Z,8.75
2023-03-13T00:45:15.261Z,8.71
2023-03-13T00:47:44.054Z,9.07
2023-03-13T00:50:12.455Z,9.11
2023-03-13T00:52:39.903Z,9.19
2023-03-13T00:55:08.653Z,8.93
2023-03-13T00:57:37.463Z,8.98
2023-03-13T01:00:07.240Z,8.96
2023-03-13T01:02:34.884Z,8.89
2023-03-13T01:05:04.084Z,8.68
2023-03-13T01:07:31.554Z,8.52
2023-03-13T01:09:59.013Z,8.66
2023-03-13T01:12:26.467Z,8.45
2023-03-13T01:14:54.178Z,8.64
2023-03-13T01:17:22.061Z,8.77
2023-03-13T01:19:49.903Z,8.62
2023-03-13T01:22:18.750Z,8.69
2023-03-13T01:24:50.023Z,8.34
2023-03-13T01:27:17.507Z,8.59
2023-03-13T01:29:45.003Z,8.33
2023-03-13T01:32:12.483Z,8.43
2023-03-13T01:34:40.552Z,8.68
2023-03-13T01:37:08.045Z,8.83
2023-03-13T01:39:36.848Z,8.73
2023-03-13T01:42:04.697Z,8.93
2023-03-13T01:44:50.684Z,8.68
2023-03-13T01:47:18.182Z,8.82
2023-03-13T01:49:46.303Z,9.03
2023-03-13T01:52:17.140Z,9.00
2023-03-13T01:54:51.028Z,8.62
2023-03-13T01:57:23.598Z,8.38
2023-03-13T01:59:55.063Z,8.35
2023-03-13T02:02:23.722Z,8.54
2023-03-13T02:04:56.670Z,8.36
2023-03-13T02:07:28.260Z,8.42
2023-03-13T02:09:57.856Z,8.34
2023-03-13T02:12:30.621Z,8.44
2023-03-13T02:15:00.122Z,8.53
2023-03-13T02:17:28.427Z,8.31
2023-03-13T02:19:56.070Z,8.23
2023-03-13T02:22:32.776Z,8.00
2023-03-13T02:25:07.727Z,8.10
2023-03-13T02:27:36.606Z,8.11
2023-03-13T02:30:05.462Z,8.08
2023-03-13T02:32:33.290Z,7.98
2023-03-13T02:35:05.796Z,7.82
2023-03-13T02:37:34.520Z,7.88
2023-03-13T02:40:06.193Z,7.97
2023-03-13T02:42:33.707Z,8.23
2023-03-13T02:45:02.509Z,8.15
2023-03-13T02:47:29.982Z,8.27
2023-03-13T02:49:57.464Z,8.22
2023-03-13T02:52:28.989Z,8.29
2023-03-13T02:55:00.007Z,8.49
2023-03-13T02:57:27.602Z,8.68
2023-03-13T02:59:55.070Z,8.42
2023-03-13T03:02:23.964Z,8.19
2023-03-13T03:04:51.498Z,8.50
2023-03-13T03:07:19.065Z,8.57
2023-03-13T03:09:46.533Z,8.56
2023-03-13T03:12:14.020Z,8.66
2023-03-13T03:14:41.622Z,8.58
2023-03-13T03:17:09.139Z,8.50
2023-03-13T03:19:37.908Z,8.72
2023-03-13T03:22:06.037Z,8.71
2023-03-13T03:24:33.542Z,8.76
2023-03-13T03:27:01.004Z,8.69
2023-03-13T03:29:28.700Z,8.73
2023-03-13T03:31:56.371Z,9.01
2023-03-13T03:34:24.016Z,9.10
2023-03-13T03:36:52.980Z,8.97
2023-03-13T03:39:20.470Z,9.08
2023-03-13T03:41:47.961Z,9.02
2023-03-13T03:44:15.502Z,8.94
2023-03-13T03:46:42.982Z,9.17
2023-03-13T03:49:10.464Z,9.61
2023-03-13T03:51:37.924Z,9.68
2023-03-13T03:54:06.749Z,9.93
2023-03-13T03:56:34.268Z,9.85
2023-03-13T03:59:01.739Z,9.88
2023-03-13T04:01:29.318Z,9.75
2023-03-13T04:03:56.794Z,9.15
2023-03-13T04:06:24.255Z,9.38
2023-03-13T04:08:51.738Z,9.20
2023-03-13T04:11:20.532Z,9.11
2023-03-13T04:13:48.055Z,8.90
2023-03-13T04:16:15.644Z,8.93
2023-03-13T04:18:43.152Z,8.78
2023-03-13T04:21:10.609Z,8.54
2023-03-13T04:23:38.099Z,8.55
2023-03-13T04:26:05.850Z,9.00
2023-03-13T04:28:34.659Z,9.02
2023-03-13T04:31:02.217Z,8.74
2023-03-13T04:33:30.417Z,9.00
2023-03-13T04:35:58.029Z,8.84
2023-03-13T04:38:25.560Z,8.45
2023-03-13T04:40:53.051Z,8.72
2023-03-13T04:43:20.534Z,8.76
2023-03-13T04:45:50.049Z,8.56
2023-03-13T04:48:17.567Z,8.62
2023-03-13T04:50:45.049Z,8.72
2023-03-13T04:53:12.521Z,8.87
2023-03-13T04:55:40.099Z,8.78
2023-03-13T04:58:07.619Z,8.75
2023-03-13T05:00:35.103Z,8.64
2023-03-13T05:03:03.925Z,8.93
2023-03-13T05:05:31.413Z,8.74
2023-03-13T05:07:58.918Z,8.42
2023-03-13T05:10:26.490Z,8.10
2023-03-13T05:12:54.029Z,7.87
2023-03-13T05:15:21.512Z,7.64
2023-03-13T05:17:48.990Z,7.61
2023-03-13T05:20:18.031Z,7.67
2023-03-13T05:22:45.552Z,7.43
2023-03-13T05:25:13.141Z,7.43
2023-03-13T05:27:40.688Z,7.41
2023-03-13T05:30:09.695Z,7.37
2023-03-13T05:32:37.234Z,7.50
2023-03-13T05:35:05.176Z,7.45
2023-03-13T05:37:34.081Z,7.37
2023-03-13T05:40:01.581Z,7.34
2023-03-13T05:42:29.071Z,7.37
2023-03-13T05:44:56.556Z,7.22
2023-03-13T05:47:24.054Z,7.40
2023-03-13T05:49:51.527Z,7.55
2023-03-13T05:52:19.017Z,7.49
2023-03-13T05:54:47.829Z,7.41
2023-03-13T05:57:15.320Z,7.65
2023-03-13T05:59:42.933Z,7.62
2023-03-13T06:02:10.396Z,7.96
2023-03-13T06:04:37.946Z,7.96
2023-03-13T06:07:05.840Z,8.15
2023-03-13T06:09:33.398Z,8.20
2023-03-13T06:12:02.188Z,8.11
2023-03-13T06:14:29.659Z,8.10
2023-03-13T06:16:57.119Z,7.98
2023-03-13T06:19:25.062Z,8.12
2023-03-13T06:21:53.266Z,8.04
2023-03-13T06:24:20.755Z,7.99
2023-03-13T06:26:49.991Z,7.67
2023-03-13T06:29:18.963Z,7.26
2023-03-13T06:31:46.607Z,7.35
2023-03-13T06:34:14.617Z,7.45
2023-03-13T06:36:42.084Z,7.55
2023-03-13T06:39:10.219Z,7.84
2023-03-13T06:41:37.694Z,7.90
2023-03-13T06:44:05.203Z,7.78
2023-03-13T06:46:34.407Z,7.78
2023-03-13T06:49:04.568Z,7.67
2023-03-13T06:51:32.480Z,7.83
2023-03-13T06:54:00.145Z,8.05
2023-03-13T06:56:27.569Z,8.21
2023-03-13T06:58:55.030Z,8.38
2023-03-13T07:01:22.610Z,8.38
2023-03-13T07:03:51.496Z,8.41
2023-03-13T07:06:19.490Z,7.94
2023-03-13T07:08:47.174Z,7.79
2023-03-13T07:11:15.429Z,7.76
2023-03-13T07:13:43.076Z,7.57
2023-03-13T07:16:12.980Z,7.71
2023-03-13T07:18:44.369Z,7.89
2023-03-13T07:21:13.738Z,7.69
2023-03-13T07:23:41.626Z,7.60
2023-03-13T07:26:12.299Z,7.60
2023-03-13T07:28:39.944Z,7.60
2023-03-13T07:31:09.455Z,7.63
2023-03-13T07:33:36.983Z,7.65
2023-03-13T07:36:05.392Z,7.93
2023-03-13T07:38:34.332Z,7.62
2023-03-13T07:41:01.955Z,7.39
2023-03-13T07:43:31.359Z,7.46
2023-03-13T07:46:00.221Z,7.40
2023-03-13T07:48:31.029Z,7.52
2023-03-13T07:50:59.524Z,7.53
2023-03-13T07:53:28.053Z,7.76
2023-03-13T07:55:58.965Z,7.83
2023-03-13T07:58:28.286Z,8.19
2023-03-13T08:00:55.806Z,8.32
2023-03-13T08:03:24.271Z,8.47
2023-03-13T08:05:59.883Z,8.39
2023-03-13T08:08:27.658Z,8.23
2023-03-13T08:10:55.148Z,8.09
2023-03-13T08:13:23.922Z,7.95
2023-03-13T08:15:51.370Z,7.96
2023-03-13T08:18:18.876Z,8.00
2023-03-13T08:20:46.326Z,7.89
2023-03-13T08:23:13.783Z,8.04
2023-03-13T08:25:41.220Z,8.06
2023-03-13T08:28:08.823Z,8.32
2023-03-13T08:30:37.733Z,8.39
2023-03-13T08:33:07.532Z,8.72
2023-03-13T08:35:35.289Z,9.16
2023-03-13T08:38:02.909Z,9.65
2023-03-13T08:40:30.414Z,10.26
2023-03-13T08:42:57.859Z,11.14
2023-03-13T08:45:25.330Z,11.86
2023-03-13T08:47:54.654Z,13.16
2023-03-13T08:50:22.136Z,14.35
2023-03-13T08:52:49.577Z,14.85
2023-03-13T08:55:17.209Z,15.32
2023-03-13T08:57:44.661Z,15.42
2023-03-13T09:00:14.991Z,14.93
2023-03-13T09:02:42.520Z,14.46
2023-03-13T09:05:11.406Z,14.36
2023-03-13T09:07:38.870Z,14.41
2023-03-13T09:10:07.503Z,14.10
2023-03-13T09:12:34.961Z,13.99
2023-03-13T09:15:02.497Z,13.65
2023-03-13T09:17:29.983Z,13.40
2023-03-13T09:20:00.486Z,12.88
2023-03-13T09:22:29.809Z,12.51
2023-03-13T09:24:57.240Z,12.38
2023-03-13T09:27:24.709Z,11.98
2023-03-13T09:29:52.344Z,11.84
2023-03-13T09:32:20.462Z,12.04
2023-03-13T09:34:48.354Z,11.95
2023-03-13T09:37:16.057Z,12.13
2023-03-13T09:39:44.889Z,12.24
2023-03-13T09:42:17.624Z,12.47
2023-03-13T09:44:49.641Z,12.64
2023-03-13T09:47:25.031Z,12.73
2023-03-13T09:49:56.754Z,13.03
2023-03-13T09:52:25.982Z,13.04
2023-03-13T09:54:58.366Z,12.93
2023-03-13T09:57:32.346Z,13.10
2023-03-13T10:00:04.599Z,13.08
2023-03-13T10:02:34.050Z,12.92
2023-03-13T10:05:11.225Z,12.97
2023-03-13T10:07:38.745Z,13.11
2023-03-13T10:10:14.368Z,13.25
2023-03-13T10:12:45.596Z,13.27
2023-03-13T10:15:37.961Z,13.35
2023-03-13T10:18:16.625Z,13.53
2023-03-13T10:20:46.604Z,13.75
2023-03-13T10:23:17.728Z,14.01
2023-03-13T10:25:46.578Z,14.29
2023-03-13T10:28:15.518Z,14.85
2023-03-13T10:30:48.791Z,14.74
2023-03-13T10:33:21.777Z,14.53
2023-03-13T10:36:01.206Z,15.14
2023-03-13T10:38:28.702Z,16.14
2023-03-13T10:41:02.055Z,16.91
2023-03-13T10:43:30.440Z,17.89
2023-03-13T10:45:57.896Z,18.74
2023-03-13T10:48:27.768Z,18.59
2023-03-13T10:50:57.535Z,17.93
2023-03-13T10:53:33.385Z,17.42
2023-03-13T10:56:11.515Z,16.78
2023-03-13T10:58:43.931Z,17.21
2023-03-13T11:01:18.375Z,17.46
2023-03-13T11:03:47.426Z,18.39
2023-03-13T11:06:27.494Z,18.93
2023-03-13T11:09:04.710Z,18.38
2023-03-13T11:11:45.353Z,17.80
2023-03-13T11:14:18.264Z,17.53
2023-03-13T11:16:50.740Z,16.96
2023-03-13T11:19:30.739Z,16.79
2023-03-13T11:22:16.037Z,16.31
2023-03-13T11:24:50.282Z,16.26
2023-03-13T11:27:28.198Z,16.51
2023-03-13T11:30:08.990Z,16.98
2023-03-13T11:32:43.122Z,16.35
2023-03-13T11:35:22.147Z,16.17
2023-03-13T11:37:53.233Z,16.08
2023-03-13T11:40:22.995Z,15.82
2023-03-13T11:43:22.020Z,15.61
2023-03-13T11:46:09.458Z,15.41
2023-03-13T11:48:49.925Z,15.63
2023-03-13T11:51:25.681Z,15.68
2023-03-13T11:54:17.148Z,15.47
2023-03-13T11:56:47.998Z,15.25
2023-03-13T11:59:31.424Z,15.04
2023-03-13T12:02:05.579Z,15.12
2023-03-13T12:04:37.789Z,15.25
2023-03-13T12:07:11.286Z,15.61
2023-03-13T12:09:45.933Z,15.83
2023-03-13T12:12:20.312Z,16.23
2023-03-13T12:14:54.735Z,16.21
2023-03-13T12:17:32.819Z,17.65
2023-03-13T12:20:07.790Z,19.12
2023-03-13T12:22:40.516Z,19.80
2023-03-13T12:25:16.108Z,19.67
2023-03-13T12:27:48.362Z,19.28
2023-03-13T12:30:28.338Z,18.85
2023-03-13T12:33:02.899Z,18.20
2023-03-13T12:35:33.264Z,18.78
2023-03-13T12:38:10.123Z,19.56
2023-03-13T12:40:44.828Z,19.59
2023-03-13T12:43:18.481Z,19.38
2023-03-13T12:46:11.974Z,18.71
2023-03-13T12:49:01.048Z,18.60
2023-03-13T12:51:41.736Z,18.20
2023-03-13T12:54:40.593Z,18.42
2023-03-13T12:57:23.142Z,18.50
2023-03-13T12:59:55.585Z,18.10
2023-03-13T13:02:26.474Z,17.75
2023-03-13T13:04:56.947Z,17.75
2023-03-13T13:07:27.335Z,18.14
2023-03-13T13:10:18.605Z,18.22
2023-03-13T13:12:47.036Z,18.28
2023-03-13T13:15:23.451Z,18.60
2023-03-13T13:17:58.267Z,18.30
2023-03-13T13:20:35.009Z,18.58
2023-03-13T13:23:34.662Z,19.29
2023-03-13T13:26:41.967Z,19.70
2023-03-13T13:29:55.863Z,20.53
2023-03-13T13:32:45.903Z,22.27
2023-03-13T13:35:26.904Z,24.05
2023-03-13T13:38:15.433Z,24.04
2023-03-13T13:41:00.001Z,22.05
2023-03-13T13:43:31.970Z,20.89
2023-03-13T13:46:03.567Z,21.10
2023-03-13T13:48:34.139Z,21.26
2023-03-13T13:51:33.408Z,21.96
2023-03-13T13:54:03.017Z,22.09
2023-03-13T13:56:36.160Z,21.93
2023-03-13T13:59:12.913Z,23.06
2023-03-13T14:01:42.591Z,23.10
2023-03-13T14:04:16.519Z,22.71
2023-03-13T14:06:49.625Z,22.19
2023-03-13T14:09:32.245Z,22.21
2023-03-13T14:11:59.807Z,21.43
2023-03-13T14:14:27.441Z,21.44
2023-03-13T14:16:57.072Z,20.50
2023-03-13T14:19:30.437Z,19.64
2023-03-13T14:22:05.215Z,19.79
2023-03-13T14:24:32.830Z,20.41
2023-03-13T14:27:00.927Z,20.64
2023-03-13T14:29:28.775Z,20.92
2023-03-13T14:31:58.643Z,20.99
2023-03-13T14:34:28.377Z,21.35
2023-03-13T14:37:16.781Z,21.19
2023-03-13T14:39:48.656Z,20.62
2023-03-13T14:42:17.878Z,20.39
2023-03-13T14:44:48.644Z,20.57
2023-03-13T14:47:24.048Z,20.49
2023-03-13T14:49:58.719Z,20.55
2023-03-13T14:52:28.114Z,21.01
2023-03-13T14:54:58.506Z,20.68
2023-03-13T14:57:27.782Z,20.58
2023-03-13T14:59:56.078Z,20.26
2023-03-13T15:02:25.444Z,19.99
2023-03-13T15:04:59.581Z,19.60
2023-03-13T15:07:28.747Z,19.87
2023-03-13T15:09:57.642Z,20.13
2023-03-13T15:12:25.362Z,20.18
2023-03-13T15:14:53.884Z,19.81
2023-03-13T15:17:23.550Z,20.08
2023-03-13T15:19:53.863Z,19.80
2023-03-13T15:22:27.014Z,19.40
2023-03-13T15:25:05.712Z,18.90
2023-03-13T15:27:35.956Z,18.71
2023-03-13T15:30:03.652Z,18.15
2023-03-13T15:32:33.844Z,18.09
2023-03-13T15:35:03.263Z,17.86
2023-03-13T15:37:31.722Z,18.02
2023-03-13T15:39:59.289Z,17.75
2023-03-13T15:42:26.949Z,17.56
2023-03-13T15:44:55.732Z,17.47
2023-03-13T15:47:23.388Z,17.55
2023-03-13T15:49:50.962Z,17.50
2023-03-13T15:52:22.697Z,17.75
2023-03-13T15:54:51.908Z,17.55
2023-03-13T15:57:23.263Z,17.56
2023-03-13T15:59:51.100Z,17.67
2023-03-13T16:02:22.405Z,17.49
2023-03-13T16:04:50.300Z,17.52
2023-03-13T16:07:20.746Z,17.33
2023-03-13T16:09:48.902Z,17.12
2023-03-13T16:12:16.364Z,16.90
2023-03-13T16:14:43.844Z,16.50
2023-03-13T16:17:15.191Z,16.07
2023-03-13T16:19:44.149Z,15.76
2023-03-13T16:22:12.223Z,15.48
2023-03-13T16:24:40.043Z,15.48
2023-03-13T16:27:14.105Z,15.28
2023-03-13T16:29:41.565Z,14.97
2023-03-13T16:32:12.722Z,14.98
2023-03-13T16:34:40.228Z,14.97
2023-03-13T16:37:14.228Z,15.07
2023-03-13T16:39:42.123Z,15.03
2023-03-13T16:42:09.665Z,15.08
2023-03-13T16:44:37.174Z,15.11
2023-03-13T16:47:16.409Z,15.34
2023-03-13T16:49:45.757Z,14.95
2023-03-13T16:52:16.508Z,14.90
2023-03-13T16:54:44.476Z,14.67
2023-03-13T16:57:13.097Z,14.45
2023-03-13T16:59:40.651Z,14.26
2023-03-13T17:02:15.493Z,14.30
2023-03-13T17:04:44.907Z,14.03
2023-03-13T17:07:18.961Z,13.85
2023-03-13T17:09:47.031Z,13.66
2023-03-13T17:12:14.571Z,13.41
2023-03-13T17:14:42.137Z,13.57
2023-03-13T17:17:13.535Z,13.47
2023-03-13T17:19:41.098Z,13.40
2023-03-13T17:22:10.519Z,13.42
2023-03-13T17:24:39.355Z,13.24
2023-03-13T17:27:12.180Z,13.09
2023-03-13T17:29:39.735Z,13.08
2023-03-13T17:32:07.447Z,13.14
2023-03-13T17:34:34.948Z,13.04
2023-03-13T17:37:04.775Z,12.83
2023-03-13T17:39:32.396Z,12.79
2023-03-13T17:42:04.084Z,12.60
2023-03-13T17:44:31.625Z,12.55
2023-03-13T17:46:59.193Z,12.65
2023-03-13T17:49:26.708Z,12.58
2023-03-13T17:51:54.162Z,12.74
2023-03-13T17:54:21.836Z,12.52
2023-03-13T17:56:49.317Z,12.62
2023-03-13T17:59:19.791Z,12.66
2023-03-13T18:01:47.400Z,12.87
2023-03-13T18:04:15.061Z,12.64
2023-03-13T18:06:44.440Z,12.73
2023-03-13T18:09:16.240Z,12.84
2023-03-13T18:11:44.056Z,12.34
2023-03-13T18:14:11.772Z,12.47
2023-03-13T18:16:44.227Z,12.70
2023-03-13T18:19:15.922Z,13.00
2023-03-13T18:21:44.440Z,12.81
2023-03-13T18:24:13.087Z,12.53
2023-03-13T18:26:43.183Z,12.42
2023-03-13T18:29:15.944Z,12.73
2023-03-13T18:31:45.265Z,12.97
2023-03-13T18:34:13.276Z,12.62
2023-03-13T18:36:40.745Z,12.39
2023-03-13T18:39:08.216Z,12.10
2023-03-13T18:41:36.952Z,12.15
2023-03-13T18:44:04.549Z,12.37
2023-03-13T18:46:34.545Z,12.30
2023-03-13T18:49:03.698Z,12.20
2023-03-13T18:51:31.162Z,11.90
2023-03-13T18:53:59.181Z,11.86
2023-03-13T18:56:30.855Z,11.91
2023-03-13T18:58:59.318Z,12.07
2023-03-13T19:01:30.074Z,11.98
2023-03-13T19:04:00.026Z,12.16
2023-03-13T19:06:30.695Z,12.14
2023-03-13T19:09:00.185Z,12.18
2023-03-13T19:11:30.423Z,12.22
2023-03-13T19:13:58.492Z,12.68
2023-03-13T19:16:30.155Z,12.85
2023-03-13T19:18:58.225Z,12.84
2023-03-13T19:21:27.439Z,12.85
2023-03-13T19:23:56.997Z,12.76
2023-03-13T19:26:28.493Z,12.28
2023-03-13T19:28:56.251Z,12.20
2023-03-13T19:31:24.154Z,11.98
2023-03-13T19:33:53.411Z,11.55
2023-03-13T19:36:22.913Z,11.37
2023-03-13T19:38:51.626Z,11.26
2023-03-13T19:41:21.572Z,11.61
2023-03-13T19:43:50.047Z,11.38
2023-03-13T19:46:23.824Z,11.65
2023-03-13T19:48:53.709Z,11.84
2023-03-13T19:51:21.333Z,11.63
2023-03-13T19:53:48.990Z,11.59
2023-03-13T19:56:20.844Z,11.53
2023-03-13T19:58:50.034Z,11.20
2023-03-13T20:01:18.108Z,11.46
2023-03-13T20:03:46.737Z,11.14
2023-03-13T20:06:17.506Z,11.01
2023-03-13T20:08:45.378Z,11.10
2023-03-13T20:11:13.611Z,11.00
2023-03-13T20:13:43.308Z,11.12
2023-03-13T20:16:11.846Z,11.22
2023-03-13T20:18:39.644Z,10.99
2023-03-13T20:21:07.737Z,11.10
2023-03-13T20:23:35.240Z,10.91
2023-03-13T20:26:04.800Z,10.82
2023-03-13T20:28:32.351Z,10.82
2023-03-13T20:31:01.236Z,10.99
2023-03-13T20:33:28.741Z,11.20
2023-03-13T20:35:58.430Z,11.18
2023-03-13T20:38:25.980Z,11.28
2023-03-13T20:40:54.126Z,11.44
2023-03-13T20:43:21.953Z,11.37
2023-03-13T20:45:49.660Z,11.16
2023-03-13T20:48:19.186Z,10.99
2023-03-13T20:50:47.176Z,11.22
2023-03-13T20:53:15.013Z,11.47
2023-03-13T20:55:42.730Z,11.59
2023-03-13T20:58:10.217Z,11.84
2023-03-13T21:00:37.695Z,11.03
2023-03-13T21:03:05.641Z,11.44
2023-03-13T21:05:34.507Z,12.45
2023-03-13T21:08:01.953Z,9.89
2023-03-13T21:10:29.463Z,9.79
2023-03-13T21:12:56.904Z,10.20
2023-03-13T21:15:24.384Z,10.66
2023-03-13T21:17:52.099Z,10.96
2023-03-13T21:20:19.645Z,11.62
2023-03-13T21:22:48.488Z,11.81
2023-03-13T21:25:16.632Z,12.00
2023-03-13T21:27:44.688Z,12.27
2023-03-13T21:30:15.066Z,12.48
2023-03-13T21:32:42.778Z,12.95
2023-03-13T21:35:11.182Z,12.76
2023-03-13T21:37:38.923Z,13.27
2023-03-13T21:40:09.651Z,14.02
2023-03-13T21:42:37.583Z,14.27
2023-03-13T21:45:05.939Z,14.33
2023-03-13T21:47:36.815Z,14.03
2023-03-13T21:50:05.899Z,14.18
2023-03-13T21:52:38.154Z,13.55
2023-03-13T21:55:12.406Z,13.87
2023-03-13T21:57:40.961Z,13.72
2023-03-13T22:00:10.066Z,12.61
2023-03-13T22:02:38.454Z,10.85
2023-03-13T22:05:07.612Z,11.34
2023-03-13T22:07:35.395Z,11.57
2023-03-13T22:10:02.882Z,11.60
2023-03-13T22:12:31.708Z,11.25
2023-03-13T22:14:59.180Z,11.01
2023-03-13T22:17:26.719Z,10.83
2023-03-13T22:19:54.885Z,10.78
2023-03-13T22:22:23.090Z,10.71
2023-03-13T22:24:50.618Z,10.68
2023-03-13T22:27:19.404Z,10.74
2023-03-13T22:29:48.689Z,10.77
2023-03-13T22:32:16.734Z,10.80
2023-03-13T22:34:47.101Z,10.83
2023-03-13T22:37:15.168Z,10.83
2023-03-13T22:39:42.704Z,10.89
2023-03-13T22:42:10.175Z,10.83
2023-03-13T22:44:37.667Z,10.77
2023-03-13T22:47:06.532Z,10.74
2023-03-13T22:49:34.002Z,10.64
2023-03-13T22:52:02.570Z,10.59
2023-03-13T22:54:30.313Z,10.56
2023-03-13T22:56:57.861Z,10.57
2023-03-13T22:59:25.379Z,10.42
2023-03-13T23:01:52.871Z,10.48
2023-03-13T23:04:21.718Z,10.20
2023-03-13T23:06:49.227Z,10.02
2023-03-13T23:09:16.752Z,10.00
2023-03-13T23:11:44.274Z,9.84
2023-03-13T23:14:11.813Z,9.87
2023-03-13T23:16:39.360Z,9.83
2023-03-13T23:19:07.706Z,9.81
2023-03-13T23:21:36.569Z,9.80
2023-03-13T23:24:04.133Z,9.77
2023-03-13T23:26:31.657Z,9.71
2023-03-13T23:28:59.169Z,9.66
2023-03-13T23:31:26.720Z,9.60
2023-03-13T23:33:54.211Z,9.62
2023-03-13T23:36:21.724Z,9.76
2023-03-13T23:38:52.091Z,9.82
2023-03-13T23:41:20.904Z,9.94
2023-03-13T23:43:48.391Z,9.88
2023-03-13T23:46:18.062Z,10.10
2023-03-13T23:48:45.573Z,10.70
2023-03-13T23:51:13.374Z,10.95
2023-03-13T23:53:42.390Z,11.24
2023-03-13T23:56:11.794Z,10.97
2023-03-13T23:58:39.387Z,11.24
